Time;durP1;ratioP1;P1;durP2;ratioP2;P2;SDS_P1;SDS_P2;PMS_P1;PMS_P2;Temp;Humidity;BMP_temperature;BMP_pressure;BME280_temperature;BME280_humidity;BME280_pressure;Samples;Min_cycle;Max_cycle;Signal;HPM_P1;HPM_P2
2022/12/17 13:06:04;;;;;;;82.32;42.58;;;2.60;86.40;;;;;;5036828;28;20083;-76
2022/12/17 13:08:29;;;;;;;93.55;47.70;;;2.70;86.70;;;;;;5033868;28;20068;-77
2022/12/17 13:11:25;;;;;;;84.18;44.58;;;2.70;86.50;;;;;;5047960;28;20037;-76
2022/12/17 13:13:56;;;;;;;80.72;40.80;;;2.60;87.30;;;;;;5033084;28;20045;-76
2022/12/17 13:16:36;;;;;;;78.65;41.40;;;2.60;87.70;;;;;;5040707;28;20542;-77
2022/12/17 13:19:16;;;;;;;86.80;48.03;;;2.50;87.70;;;;;;5034000;28;20048;-78
2022/12/17 13:21:41;;;;;;;80.80;42.05;;;2.50;87.30;;;;;;5042339;28;20287;-78
2022/12/17 13:24:11;;;;;;;85.93;44.83;;;2.50;87.00;;;;;;5040482;28;20032;-77
2022/12/17 13:26:42;;;;;;;85.60;44.47;;;2.60;86.90;;;;;;5045695;28;20365;-76
2022/12/17 13:29:23;;;;;;;84.43;45.88;;;2.60;86.80;;;;;;5038331;28;20021;-76
2022/12/17 13:31:51;;;;;;;81.53;42.80;;;2.50;86.30;;;;;;5022167;28;20040;-77
2022/12/17 13:34:43;;;;;;;88.32;46.28;;;2.60;86.30;;;;;;5046032;28;20029;-77
2022/12/17 13:37:23;;;;;;;84.95;43.65;;;2.60;85.80;;;;;;5012574;28;20096;-77
2022/12/17 13:40:30;;;;;;;85.88;46.15;;;2.60;85.50;;;;;;5041351;28;20063;-76
2022/12/17 13:42:55;;;;;;;73.85;37.05;;;2.60;85.40;;;;;;4946445;28;20055;-77
2022/12/17 13:45:24;;;;;;;94.35;48.13;;;2.50;85.70;;;;;;4951187;28;20055;-77
2022/12/17 13:47:54;;;;;;;82.18;41.67;;;2.50;86.00;;;;;;4994275;28;20052;-76
2022/12/17 13:50:21;;;;;;;;;;;2.50;86.10;;;;;;5042742;28;20547;-77
2022/12/17 13:52:47;;;;;;;81.95;43.22;;;2.50;86.20;;;;;;5037016;28;19924;-76
2022/12/17 13:55:19;;;;;;;82.20;42.47;;;2.40;86.10;;;;;;5045490;28;20427;-77
2022/12/17 13:57:47;;;;;;;85.43;45.25;;;2.40;86.10;;;;;;5020773;28;20025;-78
2022/12/17 14:00:26;;;;;;;88.50;46.72;;;2.40;86.60;;;;;;5049055;28;20021;-76
2022/12/17 14:02:53;;;;;;;78.55;43.03;;;2.40;86.90;;;;;;5046647;28;20534;-76
2022/12/17 14:05:41;;;;;;;87.30;48.42;;;2.50;88.40;;;;;;5044767;28;20158;-77
2022/12/17 14:08:07;;;;;;;83.63;42.90;;;2.50;87.30;;;;;;5046285;28;20029;-78
2022/12/17 14:10:33;;;;;;;89.07;46.67;;;2.40;86.90;;;;;;5038743;28;20021;-78
2022/12/17 14:13:07;;;;;;;88.43;45.90;;;2.40;87.60;;;;;;5047821;28;20053;-77
2022/12/17 14:15:33;;;;;;;82.18;43.67;;;2.40;87.20;;;;;;5025390;28;20185;-77
2022/12/17 14:18:00;;;;;;;92.82;52.80;;;2.40;87.00;;;;;;5049072;28;20025;-78
2022/12/17 14:20:29;;;;;;;82.35;45.17;;;2.40;87.90;;;;;;5039668;28;20018;-77
2022/12/17 14:23:00;;;;;;;85.18;43.88;;;2.30;87.60;;;;;;5044971;28;20052;-77
2022/12/17 14:25:29;;;;;;;;;;;2.20;89.20;;;;;;5044189;28;20010;-76
2022/12/17 14:28:03;;;;;;;86.95;44.28;;;2.20;89.70;;;;;;5047928;28;19909;-78
2022/12/17 14:30:36;;;;;;;81.13;41.50;;;2.10;88.10;;;;;;5045583;28;20059;-77
2022/12/17 14:33:22;;;;;;;89.85;45.53;;;2.00;88.10;;;;;;5045256;28;20052;-77
2022/12/17 14:35:51;;;;;;;92.47;46.10;;;2.10;88.20;;;;;;5045116;28;20060;-76
2022/12/17 14:38:18;;;;;;;86.78;43.90;;;2.10;89.50;;;;;;5043782;28;20029;-76
2022/12/17 14:40:44;;;;;;;89.72;45.95;;;2.00;88.60;;;;;;5046155;28;20017;-77
2022/12/17 14:43:12;;;;;;;87.18;46.58;;;2.00;88.70;;;;;;5041977;28;20031;-77
2022/12/17 14:46:19;;;;;;;82.22;43.45;;;1.90;88.40;;;;;;5043189;28;20035;-78
2022/12/17 14:51:22;;;;;;;92.90;46.03;;;1.90;88.50;;;;;;5038723;28;20168;-76
2022/12/17 14:53:48;;;;;;;84.20;40.38;;;1.90;88.20;;;;;;5049503;28;20112;-76
2022/12/17 14:56:22;;;;;;;84.80;41.22;;;1.90;88.30;;;;;;5044240;28;20017;-77
2022/12/17 14:58:48;;;;;;;90.00;43.90;;;1.90;88.60;;;;;;5046790;28;20031;-77
2022/12/17 15:01:15;;;;;;;87.95;43.50;;;2.00;90.30;;;;;;5044633;28;20018;-76
2022/12/17 15:03:44;;;;;;;88.85;47.00;;;1.90;89.20;;;;;;5049477;28;20057;-77
2022/12/17 15:06:14;;;;;;;102.40;47.55;;;1.90;89.10;;;;;;5039176;28;20028;-78
2022/12/17 15:08:42;;;;;;;88.63;44.00;;;1.90;89.40;;;;;;5042257;28;20170;-76
2022/12/17 15:11:11;;;;;;;84.53;42.42;;;1.80;88.90;;;;;;5041956;28;20024;-77
2022/12/17 15:13:36;;;;;;;71.18;33.75;;;1.80;89.20;;;;;;5038064;28;20053;-77
2022/12/17 15:16:02;;;;;;;90.10;43.75;;;1.80;90.10;;;;;;5042426;28;20159;-77
2022/12/17 15:18:28;;;;;;;94.95;47.70;;;1.70;89.70;;;;;;5042846;28;20029;-77
2022/12/17 15:20:53;;;;;;;90.40;45.83;;;1.80;89.40;;;;;;5051504;28;20028;-78
2022/12/17 15:23:20;;;;;;;86.65;42.00;;;1.80;89.50;;;;;;5047488;28;20033;-76
2022/12/17 15:25:48;;;;;;;94.28;47.13;;;1.70;89.20;;;;;;5050831;28;20143;-77
2022/12/17 15:28:18;;;;;;;88.90;44.83;;;1.70;89.40;;;;;;5042188;28;20021;-78
2022/12/17 15:30:44;;;;;;;79.10;38.70;;;1.70;89.70;;;;;;5039882;28;20040;-75
2022/12/17 15:33:10;;;;;;;86.25;44.63;;;1.70;89.10;;;;;;5044350;28;20415;-77
2022/12/17 15:35:39;;;;;;;84.88;42.83;;;1.70;89.20;;;;;;5040777;28;20047;-77
2022/12/17 15:38:11;;;;;;;84.95;43.33;;;1.70;88.80;;;;;;5029381;28;20055;-77
2022/12/17 15:40:39;;;;;;;86.45;45.65;;;1.70;88.40;;;;;;5041745;28;20689;-77
2022/12/17 15:43:15;;;;;;;78.80;40.58;;;1.60;88.40;;;;;;5042582;28;20021;-79
2022/12/17 15:45:42;;;;;;;81.80;42.47;;;1.70;88.60;;;;;;5032717;28;20022;-76
2022/12/17 15:48:10;;;;;;;92.53;48.10;;;1.70;88.40;;;;;;5031790;28;20022;-75
2022/12/17 15:50:36;;;;;;;86.13;42.20;;;1.70;88.40;;;;;;5040915;28;20032;-76
2022/12/17 15:53:02;;;;;;;91.13;51.75;;;1.70;88.40;;;;;;5041939;28;20037;-77
2022/12/17 15:55:28;;;;;;;92.20;48.17;;;1.70;89.30;;;;;;5047716;28;20539;-77
2022/12/17 15:57:54;;;;;;;84.90;45.65;;;1.70;90.10;;;;;;5045430;28;20049;-76
2022/12/17 16:00:20;;;;;;;75.07;34.70;;;1.50;89.60;;;;;;5041765;28;20118;-77
2022/12/17 16:02:47;;;;;;;86.40;45.13;;;1.50;90.40;;;;;;5047661;28;20100;-77
2022/12/17 16:05:13;;;;;;;90.03;46.70;;;1.40;90.20;;;;;;5047786;28;20017;-77
2022/12/17 16:07:39;;;;;;;78.78;38.65;;;1.40;90.00;;;;;;5048250;28;20498;-77
2022/12/17 16:10:05;;;;;;;80.03;37.88;;;1.40;89.90;;;;;;5042317;28;20017;-77
2022/12/17 16:12:31;;;;;;;76.25;40.60;;;1.40;90.30;;;;;;5036792;28;20029;-79
2022/12/17 16:14:57;;;;;;;95.18;48.65;;;1.30;90.20;;;;;;5044633;28;20419;-78
2022/12/17 16:17:22;;;;;;;94.03;45.95;;;1.30;90.20;;;;;;5043785;28;20024;-77
2022/12/17 16:19:48;;;;;;;80.90;40.00;;;1.30;89.90;;;;;;5042835;28;20033;-77
2022/12/17 16:22:14;;;;;;;77.20;40.55;;;1.40;90.40;;;;;;5046563;28;20492;-78
2022/12/17 16:24:39;;;;;;;83.28;44.53;;;1.30;90.40;;;;;;5040555;28;20471;-76
2022/12/17 16:27:06;;;;;;;81.38;41.78;;;1.20;89.80;;;;;;5046782;28;20112;-77
2022/12/17 16:29:32;;;;;;;79.38;41.53;;;1.20;89.50;;;;;;5037416;28;20021;-77
2022/12/17 16:31:58;;;;;;;74.10;40.65;;;1.20;89.10;;;;;;5048636;28;20074;-79
2022/12/17 16:34:24;;;;;;;89.45;45.00;;;1.20;88.80;;;;;;5045700;28;20031;-77
2022/12/17 16:36:50;;;;;;;84.93;45.92;;;1.20;89.10;;;;;;5045720;28;20013;-77
2022/12/17 16:39:17;;;;;;;93.35;46.00;;;1.20;89.40;;;;;;5041813;28;20391;-77
2022/12/17 16:41:44;;;;;;;94.43;47.83;;;1.20;89.10;;;;;;5025484;28;20025;-76
2022/12/17 16:44:10;;;;;;;89.82;45.28;;;1.30;89.20;;;;;;5028289;28;20036;-77
2022/12/17 16:46:39;;;;;;;90.90;46.40;;;1.20;89.20;;;;;;5046570;28;20112;-76
2022/12/17 16:49:10;;;;;;;93.78;47.30;;;1.30;89.30;;;;;;5044361;28;20021;-76
2022/12/17 16:51:36;;;;;;;79.57;40.58;;;1.30;89.00;;;;;;5037357;28;20017;-76
2022/12/17 16:54:06;;;;;;;88.25;45.85;;;1.40;89.60;;;;;;5048318;28;20461;-77
2022/12/17 16:56:32;;;;;;;;;;;1.30;89.20;;;;;;5044598;28;20033;-78
2022/12/17 16:58:57;;;;;;;88.88;46.17;;;1.30;89.30;;;;;;5049178;28;19984;-77
2022/12/17 17:01:25;;;;;;;88.13;45.03;;;1.20;89.30;;;;;;5041614;28;20017;-76
2022/12/17 17:03:51;;;;;;;90.97;45.17;;;1.30;89.50;;;;;;5036336;28;20429;-77
2022/12/17 17:06:18;;;;;;;93.60;47.03;;;1.20;89.50;;;;;;5042786;28;20112;-77
2022/12/17 17:08:44;;;;;;;89.45;47.08;;;1.20;89.30;;;;;;5036046;28;20087;-77
2022/12/17 17:11:16;;;;;;;85.47;42.17;;;1.30;89.80;;;;;;5024522;28;20017;-76
2022/12/17 17:13:43;;;;;;;97.78;47.63;;;1.30;89.50;;;;;;5040170;28;20063;-77
2022/12/17 17:16:10;;;;;;;88.20;44.13;;;1.30;89.40;;;;;;5045551;28;20029;-77
2022/12/17 17:18:37;;;;;;;82.80;41.38;;;1.30;89.10;;;;;;5040488;28;20033;-77
2022/12/17 17:21:19;;;;;;;97.45;46.40;;;1.40;89.40;;;;;;5040459;28;20041;-77
2022/12/17 17:23:52;;;;;;;88.30;43.17;;;1.30;89.00;;;;;;5045015;28;20108;-77
2022/12/17 17:26:19;;;;;;;90.30;47.13;;;1.30;89.10;;;;;;5046714;28;20331;-77
2022/12/17 17:28:45;;;;;;;86.55;43.42;;;1.30;89.50;;;;;;5048793;28;20017;-77
2022/12/17 17:31:13;;;;;;;92.47;47.17;;;1.20;89.40;;;;;;5031739;28;20471;-78
2022/12/17 17:33:45;;;;;;;87.95;41.25;;;1.20;89.30;;;;;;5048137;28;20368;-77
2022/12/17 17:36:43;;;;;;;86.72;43.03;;;1.20;89.30;;;;;;5041186;28;20036;-77
2022/12/17 17:39:10;;;;;;;94.28;44.70;;;1.10;89.50;;;;;;5000404;28;20045;-78
2022/12/17 17:41:35;;;;;;;94.32;46.67;;;1.10;89.20;;;;;;5045609;28;20020;-77
2022/12/17 17:44:11;;;;;;;95.75;46.08;;;1.20;89.40;;;;;;5033255;28;20020;-77
2022/12/17 17:46:37;;;;;;;93.45;46.63;;;1.20;89.10;;;;;;5049188;28;20455;-78
2022/12/17 17:49:04;;;;;;;86.63;41.72;;;1.30;89.80;;;;;;5046392;28;20028;-78
2022/12/17 17:51:32;;;;;;;87.30;44.47;;;1.30;89.20;;;;;;5033321;28;20028;-77
2022/12/17 17:53:59;;;;;;;89.20;44.42;;;1.20;88.80;;;;;;5053272;28;20126;-78
2022/12/17 17:56:28;;;;;;;78.80;41.10;;;1.20;89.30;;;;;;5048927;28;20025;-77
2022/12/17 17:58:58;;;;;;;82.53;42.92;;;1.10;89.10;;;;;;5048797;28;20510;-76
2022/12/17 18:01:33;;;;;;;88.50;42.03;;;1.10;89.30;;;;;;5039780;28;20044;-77
2022/12/17 18:04:00;;;;;;;75.07;37.20;;;1.00;89.10;;;;;;5048405;28;20029;-76
2022/12/17 18:06:26;;;;;;;78.45;40.20;;;1.00;90.40;;;;;;5048204;28;20029;-78
2022/12/17 18:08:55;;;;;;;66.90;35.72;;;0.90;90.40;;;;;;5049081;28;20116;-76
2022/12/17 18:11:21;;;;;;;78.63;39.15;;;0.80;90.10;;;;;;5040586;28;20029;-78
2022/12/17 18:13:56;;;;;;;66.93;34.25;;;0.80;90.00;;;;;;5048006;28;20062;-77
2022/12/17 18:16:26;;;;;;;87.53;40.13;;;0.70;90.20;;;;;;5050260;28;20044;-78
2022/12/17 18:18:55;;;;;;;79.95;40.50;;;0.80;90.20;;;;;;5049905;28;20028;-77
2022/12/17 18:21:20;;;;;;;78.28;38.95;;;0.70;90.70;;;;;;5050181;28;20028;-77
2022/12/17 18:23:46;;;;;;;81.72;41.88;;;0.80;90.40;;;;;;5045552;28;20025;-76
2022/12/17 18:26:20;;;;;;;76.95;37.97;;;0.70;90.00;;;;;;5035016;28;20099;-77
2022/12/17 18:28:47;;;;;;;86.40;40.50;;;0.70;90.10;;;;;;5043624;28;20028;-76
2022/12/17 18:31:13;;;;;;;84.45;41.45;;;0.60;90.10;;;;;;5032169;28;20024;-78
2022/12/17 18:33:41;;;;;;;84.43;40.95;;;0.60;90.40;;;;;;5042340;28;20037;-77
2022/12/17 18:36:09;;;;;;;75.35;36.83;;;0.60;90.20;;;;;;5037660;28;20099;-77
2022/12/17 18:38:35;;;;;;;77.97;39.92;;;0.50;90.90;;;;;;5028558;28;20130;-77
2022/12/17 18:44:04;;;;;;;69.40;33.42;;;0.50;90.60;;;;;;5036988;28;20036;-78
2022/12/17 18:46:32;;;;;;;77.60;37.47;;;0.40;91.10;;;;;;5043659;28;20508;-77
2022/12/17 18:49:01;;;;;;;76.55;38.90;;;0.40;91.40;;;;;;5042378;28;20160;-77
2022/12/17 18:51:27;;;;;;;78.97;40.60;;;0.40;91.10;;;;;;5037483;28;20022;-78
2022/12/17 18:53:58;;;;;;;72.20;34.95;;;0.40;90.80;;;;;;5048478;28;20029;-78
2022/12/17 18:56:24;;;;;;;86.15;41.10;;;0.40;90.60;;;;;;5048123;28;20025;-76
2022/12/17 18:58:55;;;;;;;89.30;41.97;;;0.50;90.60;;;;;;5047732;28;20029;-77
2022/12/17 19:01:29;;;;;;;87.07;40.20;;;0.50;90.50;;;;;;5034708;28;20017;-77
2022/12/17 19:03:55;;;;;;;79.85;36.85;;;0.50;90.50;;;;;;5041872;28;20451;-78
2022/12/17 19:06:23;;;;;;;91.55;42.70;;;0.40;90.70;;;;;;5047979;28;20092;-78
2022/12/17 19:08:50;;;;;;;87.13;39.88;;;0.30;90.80;;;;;;5038941;28;20391;-77
2022/12/17 19:11:18;;;;;;;79.60;39.28;;;0.40;90.80;;;;;;5049845;28;20028;-77
2022/12/17 19:13:45;;;;;;;77.53;37.72;;;0.30;90.90;;;;;;5033256;28;20053;-77
2022/12/17 19:16:12;;;;;;;82.22;39.55;;;0.40;91.00;;;;;;5038386;28;20464;-77
2022/12/17 19:18:39;;;;;;;82.65;38.95;;;0.30;90.90;;;;;;5021784;28;20104;-76
2022/12/17 19:21:07;;;;;;;82.25;40.10;;;0.30;90.80;;;;;;5042389;28;20033;-77
2022/12/17 19:23:33;;;;;;;75.78;37.50;;;0.20;90.90;;;;;;5049702;28;20103;-75
2022/12/17 19:26:14;;;;;;;97.97;41.75;;;0.20;90.80;;;;;;5041583;28;20032;-76
2022/12/17 19:28:45;;;;;;;78.22;35.95;;;0.10;91.00;;;;;;5045282;28;20442;-78
2022/12/17 19:31:11;;;;;;;66.65;33.15;;;0.10;91.10;;;;;;5047680;28;20070;-77
2022/12/17 19:33:37;;;;;;;78.75;38.63;;;0.00;91.10;;;;;;5048601;28;20037;-78
2022/12/17 19:36:09;;;;;;;76.45;34.65;;;0.00;91.80;;;;;;5022426;28;20033;-77
2022/12/17 19:38:35;;;;;;;81.50;35.95;;;-0.10;91.80;;;;;;5049082;28;20028;-79
2022/12/17 19:41:05;;;;;;;63.80;29.95;;;-0.20;91.90;;;;;;5042100;28;20070;-78
2022/12/17 19:43:32;;;;;;;65.20;31.38;;;-0.20;91.90;;;;;;5038057;28;20047;-77
2022/12/17 19:46:06;;;;;;;75.05;35.67;;;-0.20;91.80;;;;;;5040516;28;20020;-77
2022/12/17 19:48:36;;;;;;;80.20;38.33;;;-0.30;92.00;;;;;;5022592;28;20475;-77
2022/12/17 19:51:03;;;;;;;;;;;-0.30;92.00;;;;;;5043588;28;20025;-77
2022/12/17 19:53:29;;;;;;;103.97;37.65;;;-0.30;91.90;;;;;;5039870;28;19923;-76
2022/12/17 19:56:06;;;;;;;87.78;38.13;;;-0.30;91.90;;;;;;5041449;28;20024;-78
2022/12/17 19:58:32;;;;;;;119.80;37.72;;;-0.30;91.80;;;;;;5049442;28;20029;-78
2022/12/17 20:01:08;;;;;;;140.55;40.00;;;-0.40;91.80;;;;;;5047868;28;20021;-77
2022/12/17 20:03:35;;;;;;;88.40;34.65;;;-0.50;91.80;;;;;;5049287;28;20021;-78
2022/12/17 20:06:00;;;;;;;68.85;28.70;;;-0.50;91.80;;;;;;5046151;28;20025;-77
2022/12/17 20:08:30;;;;;;;87.40;35.63;;;-0.50;91.90;;;;;;5035187;28;20388;-77
2022/12/17 20:10:57;;;;;;;90.40;35.27;;;-0.50;91.80;;;;;;5038329;28;20569;-78
2022/12/17 20:13:23;;;;;;;89.00;37.08;;;-0.40;92.20;;;;;;5043693;28;20053;-77
2022/12/17 20:15:57;;;;;;;75.53;33.03;;;-0.40;92.00;;;;;;5035948;28;20020;-77
2022/12/17 20:18:23;;;;;;;94.88;39.70;;;-0.40;91.90;;;;;;5045811;28;20020;-76
2022/12/17 20:20:48;;;;;;;114.45;39.88;;;-0.40;91.90;;;;;;5044475;28;20589;-79
2022/12/17 20:23:14;;;;;;;99.35;42.75;;;-0.50;91.90;;;;;;5042822;28;20025;-77
2022/12/17 20:25:40;;;;;;;150.30;43.58;;;-0.40;92.10;;;;;;5036220;28;20029;-78
2022/12/17 20:28:05;;;;;;;96.88;39.75;;;-0.40;92.00;;;;;;5023852;28;20021;-77
2022/12/17 20:30:31;;;;;;;97.47;40.33;;;-0.40;91.90;;;;;;5040940;28;20475;-77
2022/12/17 20:32:56;;;;;;;87.47;37.38;;;-0.30;92.00;;;;;;5044691;28;20087;-77
2022/12/17 20:35:22;;;;;;;99.53;42.58;;;-0.30;92.10;;;;;;5038283;28;20028;-78
2022/12/17 20:37:48;;;;;;;88.45;36.10;;;-0.30;92.10;;;;;;5040463;28;20086;-77
2022/12/17 20:40:13;;;;;;;111.38;39.83;;;-0.30;92.10;;;;;;5049097;28;20013;-79
2022/12/17 20:42:39;;;;;;;105.10;39.20;;;-0.50;92.00;;;;;;5045063;28;20434;-77
2022/12/17 20:45:05;;;;;;;73.30;32.38;;;-0.50;92.10;;;;;;5043961;28;20025;-77
2022/12/17 20:47:31;;;;;;;113.43;38.17;;;-0.50;92.40;;;;;;5047238;28;20096;-76
2022/12/17 20:49:56;;;;;;;97.53;37.63;;;-0.60;92.40;;;;;;5016322;28;20032;-77
2022/12/17 20:52:22;;;;;;;144.52;42.33;;;-0.60;92.20;;;;;;5039200;28;20036;-76
2022/12/17 20:54:48;;;;;;;83.90;37.13;;;-0.50;92.40;;;;;;5046970;28;20032;-79
2022/12/17 20:57:13;;;;;;;95.25;41.10;;;-0.60;92.10;;;;;;5048128;28;20023;-76
2022/12/17 20:59:39;;;;;;;99.65;40.22;;;-0.60;92.40;;;;;;5036362;28;20024;-78
2022/12/17 21:02:06;;;;;;;91.80;41.00;;;-0.60;92.40;;;;;;5040878;28;20047;-79
2022/12/17 21:04:32;;;;;;;96.75;40.53;;;-0.50;92.30;;;;;;5044179;28;20013;-77
2022/12/17 21:06:57;;;;;;;102.13;40.50;;;-0.50;92.20;;;;;;5048725;28;20032;-76
2022/12/17 21:09:24;;;;;;;95.75;38.03;;;-0.40;92.10;;;;;;5034352;28;20508;-76
2022/12/17 21:11:50;;;;;;;99.40;43.13;;;-0.40;92.00;;;;;;5041791;28;20036;-77
2022/12/17 21:14:17;;;;;;;87.50;38.58;;;-0.40;92.00;;;;;;5042855;28;20419;-76
2022/12/17 21:16:43;;;;;;;86.57;38.00;;;-0.40;92.00;;;;;;5042846;28;20566;-78
2022/12/17 21:19:13;;;;;;;106.00;43.00;;;-0.40;92.00;;;;;;5041129;28;20017;-76
2022/12/17 21:21:38;;;;;;;90.37;40.07;;;-0.40;91.90;;;;;;5037408;28;20029;-78
2022/12/17 21:24:05;;;;;;;92.15;40.67;;;-0.30;91.80;;;;;;5045210;28;20271;-77
2022/12/17 21:26:36;;;;;;;100.13;40.33;;;-0.30;91.60;;;;;;5047009;28;20095;-78
2022/12/17 21:29:03;;;;;;;106.35;45.33;;;-0.30;91.60;;;;;;5034707;28;20480;-77
2022/12/17 21:31:32;;;;;;;101.50;43.60;;;-0.30;91.60;;;;;;5041716;28;20029;-76
2022/12/17 21:34:00;;;;;;;138.25;46.85;;;-0.20;91.60;;;;;;5044180;28;20037;-76
2022/12/17 21:36:27;;;;;;;110.82;47.17;;;-0.20;91.80;;;;;;5044877;28;20048;-78
2022/12/17 21:38:53;;;;;;;111.15;45.63;;;-0.20;91.60;;;;;;5028584;28;20017;-76
2022/12/17 21:41:34;;;;;;;97.22;42.53;;;-0.20;91.50;;;;;;5042632;28;20026;-77
2022/12/17 21:44:03;;;;;;;103.68;40.53;;;-0.20;91.70;;;;;;5037263;28;20033;-76
2022/12/17 21:46:29;;;;;;;91.65;41.03;;;-0.10;91.40;;;;;;5029479;28;20452;-78
2022/12/17 21:48:56;;;;;;;91.72;39.92;;;-0.10;91.70;;;;;;5041838;28;20088;-78
2022/12/17 21:51:22;;;;;;;101.47;39.70;;;-0.10;91.20;;;;;;5042894;28;20036;-79
2022/12/17 21:53:53;;;;;;;83.50;39.83;;;-0.20;91.10;;;;;;5035877;28;20040;-76
2022/12/17 21:56:18;;;;;;;;;;;-0.20;91.00;;;;;;5039829;28;20033;-76
2022/12/17 21:58:45;;;;;;;89.40;38.90;;;-0.30;90.90;;;;;;5048565;28;19995;-75
2022/12/17 22:01:23;;;;;;;100.13;41.78;;;-0.30;90.90;;;;;;5044932;28;20083;-77
2022/12/17 22:03:50;;;;;;;88.95;39.45;;;-0.30;90.80;;;;;;5012447;28;20053;-76
2022/12/17 22:06:18;;;;;;;72.88;32.20;;;-0.30;90.80;;;;;;5046375;28;20107;-76
2022/12/17 22:08:45;;;;;;;86.82;38.67;;;-0.30;90.90;;;;;;5051942;28;20025;-77
2022/12/17 22:11:18;;;;;;;95.70;42.60;;;-0.40;91.10;;;;;;5039918;28;20045;-76
2022/12/17 22:14:08;;;;;;;95.05;41.80;;;-0.40;91.40;;;;;;5048619;28;20055;-75
2022/12/17 22:16:56;;;;;;;89.13;39.38;;;-0.50;91.20;;;;;;5047631;28;20078;-77
2022/12/17 22:19:22;;;;;;;91.03;41.38;;;-0.50;91.10;;;;;;5042291;28;20021;-76
2022/12/17 22:21:49;;;;;;;91.47;43.45;;;-0.50;91.10;;;;;;5045341;28;20025;-76
2022/12/17 22:24:21;;;;;;;87.95;40.22;;;-0.40;91.00;;;;;;5032647;28;20056;-75
2022/12/17 22:26:47;;;;;;;84.85;39.42;;;-0.40;91.00;;;;;;5047122;28;20106;-76
2022/12/17 22:32:58;;;;;;;87.30;40.30;;;-0.40;90.90;;;;;;5025398;28;20017;-77
2022/12/17 22:34:45;;;;;;;97.63;42.28;;;-0.50;90.80;;;;;;5046942;28;20126;-75
2022/12/17 22:37:10;;;;;;;94.50;43.58;;;-0.50;90.90;;;;;;5047232;28;20151;-76
2022/12/17 22:39:36;;;;;;;94.25;42.47;;;-0.40;90.90;;;;;;5037909;28;20132;-76
2022/12/17 22:44:46;;;;;;;98.22;44.80;;;-0.40;90.70;;;;;;5050919;28;20048;-76
2022/12/17 22:47:11;;;;;;;95.35;43.13;;;-0.40;90.70;;;;;;5043450;28;20466;-76
2022/12/17 22:49:37;;;;;;;99.53;45.28;;;-0.50;90.70;;;;;;5045950;28;20070;-75
2022/12/17 22:52:03;;;;;;;93.55;44.35;;;-0.60;90.50;;;;;;5046495;28;20029;-75
2022/12/17 22:54:28;;;;;;;93.70;41.78;;;-0.50;90.60;;;;;;5045686;28;20067;-76
2022/12/17 22:56:54;;;;;;;100.45;43.70;;;-0.60;90.70;;;;;;5037824;28;20036;-75
2022/12/17 22:59:20;;;;;;;98.88;44.13;;;-0.70;90.70;;;;;;5044847;28;20041;-75
2022/12/17 23:01:45;;;;;;;94.47;41.60;;;-0.70;90.70;;;;;;5031569;28;20423;-74
2022/12/17 23:04:14;;;;;;;108.05;49.15;;;-0.60;90.80;;;;;;5045886;28;20021;-76
2022/12/17 23:06:45;;;;;;;113.47;49.92;;;-0.60;90.80;;;;;;5044490;28;20395;-76
2022/12/17 23:09:12;;;;;;;108.05;47.92;;;-0.60;90.70;;;;;;5037033;28;20016;-76
2022/12/17 23:11:37;;;;;;;108.50;46.30;;;-0.60;90.70;;;;;;5049415;28;20053;-77
2022/12/17 23:14:06;;;;;;;107.00;48.47;;;-0.60;90.70;;;;;;5046728;28;20079;-76
2022/12/17 23:16:32;;;;;;;107.05;46.75;;;-0.50;90.60;;;;;;5042459;28;20398;-77
2022/12/17 23:19:00;;;;;;;104.50;47.30;;;-0.50;90.60;;;;;;5033229;28;20029;-77
2022/12/17 23:21:26;;;;;;;96.28;44.67;;;-0.50;90.60;;;;;;5050973;28;20017;-77
2022/12/17 23:23:53;;;;;;;109.28;47.88;;;-0.50;90.50;;;;;;5045786;28;20021;-75
2022/12/17 23:26:29;;;;;;;107.32;48.63;;;-0.50;90.40;;;;;;5048414;28;20036;-75
2022/12/17 23:28:57;;;;;;;115.05;49.17;;;-0.60;90.40;;;;;;5044185;28;20116;-75
2022/12/17 23:31:25;;;;;;;103.88;46.35;;;-0.60;90.40;;;;;;5049591;28;20483;-76
2022/12/17 23:33:51;;;;;;;105.43;47.63;;;-0.60;90.40;;;;;;5045550;28;20094;-76
2022/12/17 23:36:19;;;;;;;102.47;46.05;;;-0.50;90.40;;;;;;5045199;28;20467;-77
2022/12/17 23:38:46;;;;;;;104.88;45.47;;;-0.60;90.40;;;;;;5041542;28;20017;-77
2022/12/17 23:41:15;;;;;;;96.32;42.33;;;-0.60;90.40;;;;;;5032103;28;20021;-76
2022/12/17 23:43:40;;;;;;;91.53;42.30;;;-0.60;90.50;;;;;;5045460;28;20032;-76
2022/12/17 23:46:07;;;;;;;92.43;42.65;;;-0.60;90.50;;;;;;5049619;28;20030;-77
2022/12/17 23:48:35;;;;;;;96.82;42.60;;;-0.60;90.40;;;;;;5048986;28;20021;-76
2022/12/17 23:51:02;;;;;;;89.75;41.45;;;-0.60;90.20;;;;;;5020720;28;20025;-77
2022/12/17 23:53:29;;;;;;;93.95;44.47;;;-0.60;90.10;;;;;;5047486;28;20116;-76
2022/12/17 23:55:55;;;;;;;91.95;43.65;;;-0.60;89.90;;;;;;5047110;28;20027;-77
2022/12/17 23:58:23;;;;;;;92.63;43.88;;;-0.60;89.80;;;;;;5035673;28;20021;-76
